Elk Grove, CA

11:33 AM PDT on August 28, 2015 (GMT -0700)
The Villas | | Change Station
CLOSE
Current Station
Personal Weather Station
Location: Elk Grove, CA
Elevation: 51 ft
Nearby Weather Stations

Elev 51 ft 38.42 °N, 121.43 °W | Updated 6 minutes ago

Clear
Clear
90.9 °F
Feels Like 91 °F
N
0.0
Wind Variable Wind from SW
Gusts 4.0 mph

Today
High -- | Low -- °F
--% Chance of Precip.
Yesterday
High -- | Low -- °F
Precip. -- in
6:31 AM 7:41 PM
Waxing Gibbous, 98% visible
Pressure 29.90 in
Visibility 10.0 miles
Clouds Clear
Heat Index 91 °F
Dew Point 61 °F
Humidity 37%
Rainfall 0.00 in
Snow Depth Not available.
UV 7 out of 12
Pollen 7.60 out of 12
Air Quality Not available.
Flu Activity Not available.
METAR KSAC 281753Z 00000KT 10SM CLR 30/13 A2990 RMK AO2 SLP123 T03000128 10300 20183 51002
Pressure 29.90 in
Visibility 10.0 miles
Clouds Clear
Heat Index 91 °F
Dew Point 61 °F
Humidity 37%
Rainfall 0.00 in
Snow Depth Not available.
UV 7 out of 12
Pollen 7.60 out of 12
Air Quality Not available.
Flu Activity Not available.
METAR KSAC 281753Z 00000KT 10SM CLR 30/13 A2990 RMK AO2 SLP123 T03000128 10300 20183 51002

10-Day Weather Forecast

×

Almanac

Astronomy

Aug. 28, 2015 Rise Set
Actual Time
Civil Twilight
Nautical Twilight
Astronomical Twilight
Moon
Length of Visible Light
Length of Day
Tomorrow will be .
, % of the Moon is Illuminated

Today's Extremes

State Highs State Lows

Community

WunderPhotos

Upload Photos

1,850,453 photos uploaded!

WunderBlogs® & News

Nearby

Air Quality

  Air Quality AQ Index Pollutant
Not available.

Snow Depth

Station Depth Elevation

Earthquake Activity

City Distance Mag. Time & Date
Minimum magnitude displayed is 2.5.

Coastal Water Temperatures

Place Temperature

Stations

Nearby Weather Stations

Station Location Temp. Windchill Dew Point Humidity Wind Precip. Elev Updated Type